createdAt,value
2023-04-16T05:04:47.994Z,36.06
2023-04-16T05:07:16.758Z,36.03
2023-04-16T05:09:45.021Z,34.48
2023-04-16T05:12:13.598Z,34.18
2023-04-16T05:14:41.931Z,33.35
2023-04-16T05:17:11.040Z,32.85
2023-04-16T05:19:39.433Z,31.78
2023-04-16T05:22:09.338Z,29.66
2023-04-16T05:24:37.659Z,28.62
2023-04-16T05:27:07.441Z,28.49
2023-04-16T05:29:35.815Z,27.88
2023-04-16T05:32:04.723Z,27.36
2023-04-16T05:34:33.069Z,28.85
2023-04-16T05:37:01.562Z,28.87
2023-04-16T05:39:31.744Z,28.93
2023-04-16T05:42:00.255Z,30.18
2023-04-16T05:44:28.580Z,30.91
2023-04-16T05:46:56.956Z,30.85
2023-04-16T05:49:25.419Z,31.64
2023-04-16T05:51:53.715Z,32.97
2023-04-16T05:54:22.054Z,32.84
2023-04-16T05:56:52.460Z,32.79
2023-04-16T05:59:21.080Z,33.31
2023-04-16T06:01:50.120Z,32.15
2023-04-16T06:04:19.715Z,31.74
2023-04-16T06:06:48.152Z,31.83
2023-04-16T06:09:16.812Z,32.41
2023-04-16T06:11:45.622Z,32.58
2023-04-16T06:14:15.451Z,33.67
2023-04-16T06:16:43.796Z,31.25
2023-04-16T06:19:12.452Z,31.33
2023-04-16T06:21:40.882Z,31.10
2023-04-16T06:24:09.142Z,30.93
2023-04-16T06:26:37.524Z,30.46
2023-04-16T06:29:05.974Z,29.14
2023-04-16T06:31:35.962Z,28.48
2023-04-16T06:34:04.931Z,30.18
2023-04-16T06:36:33.839Z,24.67
2023-04-16T06:39:02.351Z,24.86
2023-04-16T06:41:30.955Z,24.07
2023-04-16T06:43:59.352Z,24.75
2023-04-16T06:46:27.886Z,24.41
2023-04-16T06:48:57.846Z,25.17
2023-04-16T06:51:26.871Z,22.87
2023-04-16T06:53:55.260Z,21.43
2023-04-16T06:56:23.700Z,24.14
2023-04-16T06:58:52.052Z,23.89
2023-04-16T07:01:20.643Z,22.25
2023-04-16T07:03:49.279Z,20.46
2023-04-16T07:06:19.351Z,19.10
2023-04-16T07:08:48.362Z,19.46
2023-04-16T07:11:17.377Z,20.16
2023-04-16T07:13:45.628Z,22.65
2023-04-16T07:16:14.239Z,24.61
2023-04-16T07:18:42.587Z,24.57
2023-04-16T07:21:11.002Z,23.89
2023-04-16T07:23:40.914Z,23.51
2023-04-16T07:26:09.404Z,22.50
2023-04-16T07:28:37.712Z,22.48
2023-04-16T07:31:06.265Z,21.49
2023-04-16T07:33:36.325Z,20.54
2023-04-16T07:36:04.659Z,19.90
2023-04-16T07:38:34.703Z,19.52
2023-04-16T07:41:05.493Z,21.32
2023-04-16T07:43:33.777Z,21.87
2023-04-16T07:46:02.531Z,21.55
2023-04-16T07:48:31.209Z,21.88
2023-04-16T07:50:59.564Z,21.94
2023-04-16T07:53:27.841Z,21.03
2023-04-16T07:55:56.983Z,26.08
2023-04-16T07:58:26.681Z,19.22
2023-04-16T08:00:55.032Z,21.07
2023-04-16T08:03:24.185Z,20.15
2023-04-16T08:05:52.810Z,20.48
2023-04-16T08:08:21.235Z,20.14
2023-04-16T08:10:49.892Z,20.23
2023-04-16T08:13:18.431Z,19.71
2023-04-16T08:15:48.304Z,21.03
2023-04-16T08:18:16.742Z,21.72
2023-04-16T08:20:45.552Z,20.58
2023-04-16T08:23:13.871Z,19.33
2023-04-16T08:25:42.266Z,18.86
2023-04-16T08:28:10.525Z,18.89
2023-04-16T08:30:38.928Z,18.54
2023-04-16T08:33:09.017Z,18.22
2023-04-16T08:35:37.436Z,17.15
2023-04-16T08:38:07.555Z,18.06
2023-04-16T08:40:40.302Z,18.17
2023-04-16T08:43:12.479Z,18.80
2023-04-16T08:45:42.945Z,17.44
2023-04-16T08:48:13.479Z,16.25
2023-04-16T08:50:42.737Z,16.14
2023-04-16T08:53:12.921Z,17.15
2023-04-16T08:55:43.000Z,17.76
2023-04-16T08:58:15.583Z,18.87
2023-04-16T09:00:46.277Z,18.09
2023-04-16T09:03:16.371Z,18.54
2023-04-16T09:05:45.617Z,17.99
2023-04-16T09:08:14.210Z,17.09
2023-04-16T09:10:42.970Z,17.16
2023-04-16T09:13:13.652Z,17.84
2023-04-16T09:15:43.065Z,16.90
2023-04-16T09:18:12.260Z,18.08
2023-04-16T09:20:42.210Z,16.85
2023-04-16T09:23:11.154Z,17.26
2023-04-16T09:25:40.250Z,16.81
2023-04-16T09:28:08.705Z,17.41
2023-04-16T09:30:37.320Z,17.97
2023-04-16T09:33:17.682Z,17.83
2023-04-16T09:35:51.747Z,17.54
2023-04-16T09:38:20.667Z,18.23
2023-04-16T09:40:48.994Z,18.80
2023-04-16T09:43:18.601Z,18.65
2023-04-16T09:45:52.075Z,18.49
2023-04-16T09:48:30.369Z,18.96
2023-04-16T09:51:00.769Z,19.21
2023-04-16T09:53:30.382Z,18.29
2023-04-16T09:55:59.166Z,20.48
2023-04-16T09:58:29.489Z,18.24
2023-04-16T10:00:58.756Z,18.96
2023-04-16T10:03:32.237Z,19.08
2023-04-16T10:06:03.796Z,18.47
2023-04-16T10:08:32.219Z,19.66
2023-04-16T10:11:01.031Z,18.97
2023-04-16T10:13:31.291Z,19.56
2023-04-16T10:16:00.662Z,19.15
2023-04-16T10:18:29.261Z,19.19
2023-04-16T10:20:59.411Z,19.24
2023-04-16T10:23:29.390Z,19.58
2023-04-16T10:25:58.610Z,19.12
2023-04-16T10:28:29.347Z,18.16
2023-04-16T10:30:58.751Z,18.09
2023-04-16T10:33:32.794Z,18.38
2023-04-16T10:36:11.986Z,18.17
2023-04-16T10:38:42.720Z,18.37
2023-04-16T10:41:10.982Z,18.46
2023-04-16T10:43:44.095Z,18.91
2023-04-16T10:46:24.696Z,19.31
2023-04-16T10:48:56.619Z,18.86
2023-04-16T10:51:27.972Z,18.01
2023-04-16T10:53:58.730Z,18.28
2023-04-16T10:56:28.183Z,19.09
2023-04-16T10:58:57.548Z,18.42
2023-04-16T11:01:32.955Z,18.00
2023-04-16T11:04:04.974Z,17.46
2023-04-16T11:06:33.553Z,16.79
2023-04-16T11:09:05.879Z,16.80
2023-04-16T11:11:39.892Z,17.76
2023-04-16T11:14:09.982Z,18.29
2023-04-16T11:16:42.174Z,17.96
2023-04-16T11:19:18.233Z,17.70
2023-04-16T11:21:47.186Z,17.95
2023-04-16T11:24:17.016Z,18.43
2023-04-16T11:26:45.555Z,18.87
2023-04-16T11:29:16.451Z,19.72
2023-04-16T11:31:46.726Z,20.32
2023-04-16T11:34:15.675Z,20.58
2023-04-16T11:36:47.370Z,20.54
2023-04-16T11:39:17.726Z,19.86
2023-04-16T11:41:46.334Z,19.50
2023-04-16T11:44:25.410Z,19.28
2023-04-16T11:46:55.052Z,19.47
2023-04-16T11:49:29.815Z,19.46
2023-04-16T11:51:58.647Z,20.02
2023-04-16T11:54:34.872Z,19.50
2023-04-16T11:57:04.509Z,19.86
2023-04-16T11:59:33.456Z,20.50
2023-04-16T12:02:01.904Z,20.39
2023-04-16T12:04:30.585Z,20.70
2023-04-16T12:07:12.260Z,20.89
2023-04-16T12:09:42.991Z,20.58
2023-04-16T12:12:27.784Z,21.24
2023-04-16T12:14:57.393Z,21.02
2023-04-16T12:17:26.279Z,21.35
2023-04-16T12:19:57.711Z,21.20
2023-04-16T12:22:30.413Z,21.32
2023-04-16T12:25:02.987Z,21.33
2023-04-16T12:27:49.539Z,20.91
2023-04-16T12:30:22.572Z,20.78
2023-04-16T12:32:52.748Z,21.23
2023-04-16T12:35:36.049Z,21.63
2023-04-16T12:38:04.806Z,21.25
2023-04-16T12:40:36.040Z,21.48
2023-04-16T12:43:04.491Z,21.60
2023-04-16T12:45:32.865Z,21.89
2023-04-16T12:48:01.865Z,21.05
2023-04-16T12:50:30.250Z,21.11
2023-04-16T12:52:59.025Z,23.58
2023-04-16T12:55:27.583Z,21.72
2023-04-16T12:57:57.237Z,21.62
2023-04-16T13:00:26.026Z,21.60
2023-04-16T13:02:54.510Z,21.82
2023-04-16T13:05:22.943Z,22.00
2023-04-16T13:07:51.301Z,22.07
2023-04-16T13:10:19.849Z,22.04
2023-04-16T13:12:49.326Z,22.06
2023-04-16T13:15:19.186Z,22.32
2023-04-16T13:17:47.743Z,22.41
2023-04-16T13:20:16.622Z,22.38
2023-04-16T13:22:45.083Z,22.23
2023-04-16T13:25:13.454Z,22.10
2023-04-16T13:27:41.887Z,21.98
2023-04-16T13:30:10.926Z,22.04
2023-04-16T13:32:41.335Z,22.61
2023-04-16T13:35:11.981Z,22.72
2023-04-16T13:37:40.449Z,22.52
2023-04-16T13:40:10.262Z,22.57
2023-04-16T13:42:38.748Z,22.70
2023-04-16T13:45:09.490Z,22.54
2023-04-16T13:47:37.957Z,22.52
2023-04-16T13:50:08.519Z,22.60
2023-04-16T13:52:37.681Z,22.90
2023-04-16T13:55:06.661Z,22.81
2023-04-16T13:57:35.202Z,22.86
2023-04-16T14:00:04.619Z,22.82
2023-04-16T14:02:35.165Z,22.93
2023-04-16T14:05:03.833Z,23.51
2023-04-16T14:07:35.661Z,23.04
2023-04-16T14:10:04.039Z,22.83
2023-04-16T14:12:32.945Z,22.67
2023-04-16T14:15:02.260Z,23.03
2023-04-16T14:17:32.280Z,23.02
2023-04-16T14:20:00.852Z,22.73
2023-04-16T14:22:29.170Z,22.95
2023-04-16T14:24:59.572Z,22.67
2023-04-16T14:27:28.865Z,22.54
2023-04-16T14:29:57.763Z,22.77
2023-04-16T14:32:26.261Z,23.11
2023-04-16T14:34:54.780Z,22.95
2023-04-16T14:37:23.183Z,23.08
2023-04-16T14:39:51.903Z,22.98
2023-04-16T14:42:22.563Z,23.29
2023-04-16T14:44:52.307Z,23.51
2023-04-16T14:47:20.967Z,23.42
2023-04-16T14:49:49.287Z,23.76
2023-04-16T14:52:18.202Z,23.93
2023-04-16T14:54:47.909Z,24.12
2023-04-16T14:57:17.933Z,23.90
2023-04-16T14:59:48.435Z,24.22
2023-04-16T15:02:17.229Z,24.42
2023-04-16T15:04:46.008Z,24.52
2023-04-16T15:07:14.355Z,24.39
2023-04-16T15:09:42.983Z,24.34
2023-04-16T15:12:11.893Z,24.59
2023-04-16T15:14:40.337Z,24.50
2023-04-16T15:17:10.680Z,24.58
2023-04-16T15:19:39.098Z,24.46
2023-04-16T15:22:07.436Z,24.49
2023-04-16T15:24:35.799Z,25.07
2023-04-16T15:27:06.016Z,25.06
2023-04-16T15:29:34.587Z,24.90
2023-04-16T15:32:02.913Z,24.91
2023-04-16T15:34:32.775Z,25.24
2023-04-16T15:37:01.399Z,25.10
2023-04-16T15:39:29.931Z,25.13
2023-04-16T15:42:01.877Z,25.03
2023-04-16T15:44:31.854Z,25.42
2023-04-16T15:47:00.560Z,25.63
2023-04-16T15:49:28.903Z,25.47
2023-04-16T15:51:58.700Z,25.58
2023-04-16T15:54:27.356Z,25.57
2023-04-16T15:56:55.935Z,25.61
2023-04-16T15:59:24.407Z,25.94
2023-04-16T16:01:53.530Z,25.98
2023-04-16T16:04:23.279Z,26.06
2023-04-16T16:06:52.008Z,26.17
2023-04-16T16:09:26.386Z,26.42
2023-04-16T16:11:55.714Z,26.31
2023-04-16T16:14:24.491Z,26.61
2023-04-16T16:16:52.850Z,26.61
2023-04-16T16:19:21.259Z,26.81
2023-04-16T16:21:49.670Z,26.51
2023-04-16T16:24:18.585Z,27.03
2023-04-16T16:26:48.399Z,27.29
2023-04-16T16:29:16.899Z,27.32
2023-04-16T16:31:46.327Z,27.24
2023-04-16T16:34:20.771Z,27.35
2023-04-16T16:36:50.308Z,27.61
2023-04-16T16:39:22.448Z,27.23
2023-04-16T16:41:52.935Z,27.60
2023-04-16T16:44:21.534Z,27.60
2023-04-16T16:46:50.241Z,27.44
2023-04-16T16:49:19.182Z,27.57
2023-04-16T16:51:48.286Z,28.17
2023-04-16T16:54:16.931Z,29.02
2023-04-16T16:56:45.391Z,29.46
2023-04-16T16:59:15.195Z,30.23
2023-04-16T17:01:43.473Z,30.57
2023-04-16T17:04:12.046Z,29.85
2023-04-16T17:06:40.647Z,31.07
2023-04-16T17:09:09.082Z,31.06
2023-04-16T17:11:37.834Z,31.97
2023-04-16T17:14:06.514Z,32.40
2023-04-16T17:16:36.934Z,32.04
2023-04-16T17:19:05.989Z,32.35
2023-04-16T17:21:34.414Z,32.88
2023-04-16T17:24:02.821Z,30.86
2023-04-16T17:26:32.055Z,32.06
2023-04-16T17:29:00.717Z,32.01
2023-04-16T17:31:29.137Z,32.59
2023-04-16T17:33:59.735Z,31.68
2023-04-16T17:36:28.095Z,33.22
2023-04-16T17:38:56.944Z,34.46
2023-04-16T17:41:25.443Z,35.98
2023-04-16T17:43:53.814Z,36.69
2023-04-16T17:46:22.161Z,38.39
2023-04-16T17:48:50.675Z,34.30
2023-04-16T17:51:20.491Z,36.87
2023-04-16T17:53:48.887Z,34.92
2023-04-16T17:56:17.318Z,32.57
2023-04-16T17:58:45.743Z,34.36
2023-04-16T18:01:14.088Z,33.91
2023-04-16T18:03:44.534Z,33.18
2023-04-16T18:06:13.130Z,37.41
2023-04-16T18:08:42.832Z,35.98
2023-04-16T18:11:12.047Z,32.03
2023-04-16T18:13:40.305Z,36.43
2023-04-16T18:16:16.781Z,37.29
2023-04-16T18:18:45.698Z,35.90
2023-04-16T18:21:14.546Z,34.23
2023-04-16T18:23:44.465Z,37.69
2023-04-16T18:26:12.929Z,39.16
2023-04-16T18:28:41.658Z,37.39
2023-04-16T18:31:10.964Z,37.38
2023-04-16T18:33:55.737Z,36.01
2023-04-16T18:36:26.234Z,37.43
2023-04-16T18:41:28.488Z,36.17
2023-04-16T18:43:56.936Z,34.05
2023-04-16T18:46:25.479Z,39.29
2023-04-16T18:48:53.994Z,38.74
2023-04-16T18:51:22.387Z,36.63
2023-04-16T18:53:51.397Z,38.86
2023-04-16T18:56:21.285Z,36.80
2023-04-16T18:58:49.705Z,39.06
2023-04-16T19:01:18.111Z,37.01
2023-04-16T19:03:46.725Z,37.01
2023-04-16T19:06:15.125Z,37.33
2023-04-16T19:08:43.409Z,38.85
2023-04-16T19:11:11.916Z,42.47
2023-04-16T19:13:43.160Z,38.13
2023-04-16T19:16:12.524Z,38.11
2023-04-16T19:18:40.925Z,38.40
2023-04-16T19:21:11.001Z,40.80
2023-04-16T19:23:39.551Z,37.66
2023-04-16T19:26:08.113Z,38.20
2023-04-16T19:28:36.385Z,37.41
2023-04-16T19:31:06.603Z,36.32
2023-04-16T19:33:35.091Z,37.02
2023-04-16T19:36:03.568Z,35.37
2023-04-16T19:38:32.813Z,33.54
2023-04-16T19:41:01.239Z,34.36
2023-04-16T19:43:31.112Z,36.74
2023-04-16T19:45:59.849Z,35.68
2023-04-16T19:48:30.518Z,36.22
2023-04-16T19:51:02.317Z,37.86
2023-04-16T19:53:30.571Z,34.92
2023-04-16T19:55:58.882Z,35.49
2023-04-16T19:58:27.525Z,36.43
2023-04-16T20:00:56.493Z,34.18
2023-04-16T20:03:24.975Z,37.95
2023-04-16T20:05:54.913Z,40.38
2023-04-16T20:08:23.146Z,36.26
2023-04-16T20:10:51.451Z,38.44
2023-04-16T20:13:19.829Z,36.76
2023-04-16T20:15:48.484Z,40.05
2023-04-16T20:18:18.174Z,38.30
2023-04-16T20:20:47.280Z,36.64
2023-04-16T20:23:17.020Z,34.99
2023-04-16T20:25:46.332Z,36.80
2023-04-16T20:28:16.480Z,36.65
2023-04-16T20:30:44.884Z,36.59
2023-04-16T20:33:13.211Z,36.29
2023-04-16T20:35:41.874Z,35.72
2023-04-16T20:38:10.379Z,38.04
2023-04-16T20:40:42.073Z,38.27
2023-04-16T20:43:14.484Z,36.67
2023-04-16T20:45:46.350Z,38.59
2023-04-16T20:48:14.704Z,35.60
2023-04-16T20:50:43.613Z,36.84
2023-04-16T20:53:13.242Z,36.15
2023-04-16T20:55:45.541Z,36.32
2023-04-16T20:58:14.914Z,38.02
2023-04-16T21:00:43.241Z,36.45
2023-04-16T21:03:12.198Z,37.45
2023-04-16T21:05:42.016Z,37.12
2023-04-16T21:08:10.353Z,37.53
2023-04-16T21:10:40.393Z,39.53
2023-04-16T21:13:12.489Z,37.08
2023-04-16T21:15:43.007Z,35.88
2023-04-16T21:18:13.372Z,35.87
2023-04-16T21:20:42.768Z,35.83
2023-04-16T21:23:12.272Z,36.05
2023-04-16T21:25:40.989Z,35.95
2023-04-16T21:28:13.616Z,38.77
2023-04-16T21:30:43.754Z,40.62
2023-04-16T21:33:15.074Z,36.80
2023-04-16T21:35:43.803Z,35.21
2023-04-16T21:38:12.631Z,35.73
2023-04-16T21:40:41.645Z,36.59
2023-04-16T21:43:13.377Z,37.03
2023-04-16T21:45:42.228Z,38.40
2023-04-16T21:48:10.553Z,35.77
2023-04-16T21:50:39.114Z,36.20
2023-04-16T21:53:07.770Z,36.17
2023-04-16T21:55:36.421Z,34.74
2023-04-16T21:58:05.350Z,36.05
2023-04-16T22:00:35.126Z,36.65
2023-04-16T22:03:04.435Z,37.75
2023-04-16T22:05:33.435Z,36.79
2023-04-16T22:08:10.913Z,37.90
2023-04-16T22:10:49.764Z,36.97
2023-04-16T22:13:18.210Z,41.29
2023-04-16T22:15:48.070Z,40.50
2023-04-16T22:18:16.454Z,37.22
2023-04-16T22:20:47.229Z,35.13
2023-04-16T22:23:15.991Z,38.71
2023-04-16T22:25:44.802Z,37.22
2023-04-16T22:28:13.063Z,40.87
2023-04-16T22:30:41.473Z,37.90
2023-04-16T22:33:11.347Z,37.06
2023-04-16T22:35:40.164Z,40.24
2023-04-16T22:38:09.049Z,39.35
2023-04-16T22:40:37.435Z,37.65
2023-04-16T22:43:05.949Z,36.91
2023-04-16T22:45:34.783Z,41.31
2023-04-16T22:48:03.056Z,43.37
2023-04-16T22:50:32.832Z,40.52
2023-04-16T22:53:01.267Z,39.74
2023-04-16T22:55:29.597Z,40.24
2023-04-16T22:58:01.412Z,38.09
2023-04-16T23:00:29.804Z,41.65
2023-04-16T23:02:58.104Z,39.55
2023-04-16T23:05:26.669Z,42.49
2023-04-16T23:07:56.928Z,40.54
2023-04-16T23:10:25.159Z,38.56
2023-04-16T23:12:53.809Z,40.11
2023-04-16T23:15:22.025Z,40.14
2023-04-16T23:17:50.921Z,37.73
2023-04-16T23:20:19.549Z,39.47
2023-04-16T23:22:47.943Z,40.80
2023-04-16T23:25:18.203Z,37.94
2023-04-16T23:27:46.528Z,43.29
2023-04-16T23:30:15.949Z,41.06
2023-04-16T23:32:44.296Z,43.32
2023-04-16T23:35:12.826Z,39.63
2023-04-16T23:37:41.579Z,39.61
2023-04-16T23:40:11.623Z,41.49
2023-04-16T23:42:41.478Z,41.78
2023-04-16T23:45:11.118Z,42.70
2023-04-16T23:47:40.301Z,41.50
2023-04-16T23:50:09.259Z,40.05
2023-04-16T23:52:37.654Z,42.63
2023-04-16T23:55:06.755Z,44.60
2023-04-16T23:57:35.210Z,42.20
